Time;durP1;ratioP1;P1;durP2;ratioP2;P2;SDS_P1;SDS_P2;PMS_P1;PMS_P2;Temp;Humidity;BMP_temperature;BMP_pressure;BME280_temperature;BME280_humidity;BME280_pressure;Samples;Min_cycle;Max_cycle;Signal;HPM_P1;HPM_P2
2023/12/07 00:02:07;;;;;;;;;;;;;;;-0.76;100.00;101047.41;5018001;28;19925;-79
2023/12/07 00:04:35;;;;;;;;;;;;;;;-0.79;100.00;101052.31;5000551;28;19925;-79
2023/12/07 00:07:04;;;;;;;;;;;;;;;-0.79;100.00;101050.44;5004535;28;20397;-79
2023/12/07 00:09:32;;;;;;;;;;;;;;;-0.78;100.00;101045.94;5005562;28;20333;-79
2023/12/07 00:12:00;;;;;;;;;;;;;;;-0.79;100.00;101049.63;5003748;28;20304;-78
2023/12/07 00:14:33;;;;;;;;;;;;;;;-0.80;100.00;101056.00;5013325;28;19940;-79
2023/12/07 00:17:06;;;;;;;;;;;;;;;-0.80;100.00;101056.00;5015979;28;19925;-79
2023/12/07 00:19:39;;;;;;;;;;;;;;;-0.78;100.00;101060.13;5003774;28;19926;-78
2023/12/07 00:22:13;;;;;;;;;;;;;;;-0.76;100.00;101058.09;5017927;28;19933;-79
2023/12/07 00:24:46;;;;;;;;;;;;;;;-0.79;100.00;101057.66;4996255;28;19925;-79
2023/12/07 00:27:19;;;;;;;;;;;;;;;-0.82;100.00;101066.06;4997974;28;20317;-79
2023/12/07 00:29:52;;;;;;;;;;;;;;;-0.78;100.00;101064.66;4997211;28;19925;-79
2023/12/07 00:32:27;;;;;;;;;;;;;;;-0.83;100.00;101059.88;5000735;28;19928;-78
2023/12/07 00:34:55;;;;;;;;;;;;;;;-0.76;100.00;101055.44;4999920;28;19926;-79
2023/12/07 00:37:29;;;;;;;;;;;;;;;-0.74;100.00;101065.91;5010174;28;19925;-79
2023/12/07 00:40:03;;;;;;;;;;;;;;;-0.79;100.00;101068.34;4996361;28;19933;-78
2023/12/07 00:42:31;;;;;;;;;;;;;;;-0.73;100.00;101071.06;5001511;28;20362;-79
2023/12/07 00:45:00;;;;;;;;;;;;;;;-0.74;100.00;101069.41;4999419;28;19925;-79
2023/12/07 00:47:33;;;;;;;;;;;;;;;-0.76;100.00;101074.13;4996638;28;19933;-79
2023/12/07 00:50:07;;;;;;;;;;;;;;;-0.72;100.00;101074.56;4998513;28;20016;-79
2023/12/07 00:52:41;;;;;;;;;;;;;;;-0.75;100.00;101078.44;4999365;28;19929;-79
2023/12/07 00:55:14;;;;;;;;;;;;;;;-0.75;100.00;101082.97;5005165;28;19933;-79
2023/12/07 00:57:42;;;;;;;;;;;;;;;-0.73;100.00;101094.31;5000792;28;19921;-79
2023/12/07 01:00:15;;;;;;;;;;;;;;;-0.76;100.00;101095.50;5014944;28;19926;-79
2023/12/07 01:02:43;;;;;;;;;;;;;;;-0.79;100.00;101098.56;5004563;28;20005;-79
2023/12/07 01:05:11;;;;;;;;;;;;;;;-0.75;100.00;101102.50;5001087;28;19925;-79
2023/12/07 01:07:45;;;;;;;;;;;;;;;-0.76;100.00;101106.22;5001582;28;19926;-79
2023/12/07 01:10:13;;;;;;;;;;;;;;;-0.74;100.00;101109.50;5000803;28;19933;-79
2023/12/07 01:12:46;;;;;;;;;;;;;;;-0.76;100.00;101108.88;5006127;28;20389;-79
2023/12/07 01:15:14;;;;;;;;;;;;;;;-0.65;100.00;101109.34;5003550;28;19925;-78
2023/12/07 01:17:42;;;;;;;;;;;;;;;-0.74;100.00;101112.16;5020969;28;20387;-79
2023/12/07 01:20:12;;;;;;;;;;;;;;;-0.74;100.00;101117.50;5006381;28;19921;-78
2023/12/07 01:22:47;;;;;;;;;;;;;;;-0.76;100.00;101108.03;5003194;28;19925;-79
2023/12/07 01:25:21;;;;;;;;;;;;;;;-0.76;100.00;101116.91;5003994;28;19929;-79
2023/12/07 01:27:49;;;;;;;;;;;;;;;-0.72;100.00;101115.50;4999005;28;19929;-79
2023/12/07 01:30:22;;;;;;;;;;;;;;;-0.75;100.00;101121.19;5003295;28;19933;-79
2023/12/07 01:32:50;;;;;;;;;;;;;;;-0.74;100.00;101130.06;5014475;28;19929;-79
2023/12/07 01:35:23;;;;;;;;;;;;;;;-0.81;100.00;101132.69;5000945;28;19932;-79
2023/12/07 01:37:57;;;;;;;;;;;;;;;-0.79;100.00;101132.47;4999528;28;19956;-79
2023/12/07 01:40:25;;;;;;;;;;;;;;;-0.78;100.00;101137.63;5000336;28;19921;-79
2023/12/07 01:42:58;;;;;;;;;;;;;;;-0.73;100.00;101131.72;5014721;28;19936;-78
2023/12/07 01:45:31;;;;;;;;;;;;;;;-0.81;100.00;101137.22;5001096;28;19925;-78
2023/12/07 01:48:04;;;;;;;;;;;;;;;-0.72;100.00;101147.56;5000278;28;19925;-79
2023/12/07 01:50:33;;;;;;;;;;;;;;;-0.69;100.00;101157.03;5000518;28;19925;-79
2023/12/07 01:53:08;;;;;;;;;;;;;;;-0.66;100.00;101145.13;5002573;28;19926;-79
2023/12/07 01:55:37;;;;;;;;;;;;;;;-0.72;100.00;101141.38;5002974;28;19932;-79
2023/12/07 01:58:05;;;;;;;;;;;;;;;-0.72;100.00;101146.72;4999071;28;19945;-78
2023/12/07 02:00:39;;;;;;;;;;;;;;;-0.73;100.00;101147.75;5001112;28;19929;-79
2023/12/07 02:03:12;;;;;;;;;;;;;;;-0.77;100.00;101139.28;5001206;28;19926;-79
2023/12/07 02:05:48;;;;;;;;;;;;;;;-0.72;100.00;101136.88;5014308;28;20297;-79
2023/12/07 02:08:22;;;;;;;;;;;;;;;-0.72;100.00;101139.53;4999041;28;19925;-79
2023/12/07 02:10:51;;;;;;;;;;;;;;;-0.75;100.00;101144.44;5001710;28;19944;-79
2023/12/07 02:13:19;;;;;;;;;;;;;;;-0.70;100.00;101152.72;5002617;28;19929;-79
2023/12/07 02:15:53;;;;;;;;;;;;;;;-0.76;100.00;101145.44;4998946;28;19925;-79
2023/12/07 02:18:29;;;;;;;;;;;;;;;-0.75;100.00;101150.59;5000021;28;20479;-79
2023/12/07 02:21:04;;;;;;;;;;;;;;;-0.72;100.00;101154.72;4999819;28;19925;-79
2023/12/07 02:23:34;;;;;;;;;;;;;;;-0.67;100.00;101151.50;5015246;28;19929;-79
2023/12/07 02:26:32;;;;;;;;;;;;;;;-0.75;100.00;101158.63;5005601;28;19925;-79
2023/12/07 02:29:02;;;;;;;;;;;;;;;-0.75;100.00;101153.28;4999964;28;19928;-79
2023/12/07 02:31:30;;;;;;;;;;;;;;;-0.73;100.00;101164.63;5000670;28;19928;-78
2023/12/07 02:33:58;;;;;;;;;;;;;;;-0.72;100.00;101163.59;4998918;28;19951;-79
2023/12/07 02:36:28;;;;;;;;;;;;;;;-0.72;100.00;101158.25;5001676;28;19932;-79
2023/12/07 02:39:03;;;;;;;;;;;;;;;-0.71;100.00;101149.19;4999292;28;20408;-79
2023/12/07 02:41:37;;;;;;;;;;;;;;;-0.73;100.00;101156.59;5001116;28;19929;-79
2023/12/07 02:44:12;;;;;;;;;;;;;;;-0.70;100.00;101150.03;4997251;28;19929;-79
2023/12/07 02:46:39;;;;;;;;;;;;;;;-0.66;100.00;101158.47;4999904;28;19936;-79
2023/12/07 02:49:07;;;;;;;;;;;;;;;-0.69;100.00;101160.53;4997292;28;19925;-79
2023/12/07 02:51:40;;;;;;;;;;;;;;;-0.64;100.00;101167.97;4999535;28;19926;-79
2023/12/07 02:54:08;;;;;;;;;;;;;;;-0.71;100.00;101164.41;5004273;28;19925;-78
2023/12/07 02:56:41;;;;;;;;;;;;;;;-0.72;100.00;101170.78;5002674;28;20761;-79
2023/12/07 02:59:15;;;;;;;;;;;;;;;-0.75;100.00;101163.97;5002516;28;20390;-79
2023/12/07 03:01:48;;;;;;;;;;;;;;;-0.72;100.00;101162.75;5007707;28;20047;-79
2023/12/07 03:04:21;;;;;;;;;;;;;;;-0.73;100.00;101169.97;5006610;28;19925;-79
2023/12/07 03:06:54;;;;;;;;;;;;;;;-0.75;100.00;101163.97;5016840;28;19941;-79
2023/12/07 03:09:22;;;;;;;;;;;;;;;-0.75;100.00;101173.84;5005450;28;19929;-79
2023/12/07 03:11:50;;;;;;;;;;;;;;;-0.71;100.00;101170.56;4999508;28;19921;-79
2023/12/07 03:14:25;;;;;;;;;;;;;;;-0.71;100.00;101175.91;5007364;28;19941;-79
2023/12/07 03:16:52;;;;;;;;;;;;;;;-0.72;100.00;101173.44;5003625;28;19928;-79
2023/12/07 03:19:21;;;;;;;;;;;;;;;-0.71;100.00;101175.91;5002465;28;19930;-79
2023/12/07 03:21:53;;;;;;;;;;;;;;;-0.72;100.00;101179.63;5008940;28;20282;-79
2023/12/07 03:24:26;;;;;;;;;;;;;;;-0.69;100.00;101183.78;4996521;28;20402;-79
2023/12/07 03:26:59;;;;;;;;;;;;;;;-0.70;100.00;101179.44;5000659;28;20394;-79
2023/12/07 03:29:34;;;;;;;;;;;;;;;-0.69;100.00;101189.13;5002149;28;19933;-80
2023/12/07 03:32:07;;;;;;;;;;;;;;;-0.70;100.00;101182.13;4997764;28;19948;-79
2023/12/07 03:34:40;;;;;;;;;;;;;;;-0.67;100.00;101180.91;4997647;28;19937;-80
2023/12/07 03:37:13;;;;;;;;;;;;;;;-0.69;100.00;101184.59;4996877;28;19928;-79
2023/12/07 03:39:41;;;;;;;;;;;;;;;-0.67;100.00;101175.56;4995421;28;20594;-79
2023/12/07 03:42:14;;;;;;;;;;;;;;;-0.70;100.00;101179.44;4997621;28;19929;-79
2023/12/07 03:44:48;;;;;;;;;;;;;;;-0.64;100.00;101178.66;4996983;28;19930;-79
2023/12/07 03:47:21;;;;;;;;;;;;;;;-0.65;100.00;101182.34;4996189;28;20382;-79
2023/12/07 03:49:54;;;;;;;;;;;;;;;-0.70;100.00;101177.59;4996672;28;19947;-78
2023/12/07 03:52:27;;;;;;;;;;;;;;;-0.68;100.00;101188.06;4997115;28;19956;-79
2023/12/07 03:55:00;;;;;;;;;;;;;;;-0.69;100.00;101181.09;4997778;28;19936;-79
2023/12/07 03:57:33;;;;;;;;;;;;;;;-0.67;100.00;101181.72;4999017;28;19922;-79
2023/12/07 04:00:08;;;;;;;;;;;;;;;-0.69;100.00;101184.59;4998349;28;19933;-79
2023/12/07 04:02:41;;;;;;;;;;;;;;;-0.67;100.00;101188.91;4996844;28;19922;-79
2023/12/07 04:05:14;;;;;;;;;;;;;;;-0.62;100.00;101189.16;4996833;28;19956;-79
2023/12/07 04:07:47;;;;;;;;;;;;;;;-0.66;100.00;101188.72;5005612;28;19925;-79
2023/12/07 04:10:15;;;;;;;;;;;;;;;-0.66;100.00;101182.53;4999346;28;19929;-79
2023/12/07 04:12:48;;;;;;;;;;;;;;;-0.68;100.00;101188.06;4993602;28;19932;-78
2023/12/07 04:15:17;;;;;;;;;;;;;;;-0.68;100.00;101193.41;5014171;28;19940;-79
2023/12/07 04:17:50;;;;;;;;;;;;;;;-0.66;100.00;101195.91;5002769;28;19930;-79
2023/12/07 04:20:18;;;;;;;;;;;;;;;-0.67;100.00;101192.41;5011867;28;19933;-79
2023/12/07 04:22:52;;;;;;;;;;;;;;;-0.65;100.00;101206.41;5015163;28;19929;-79
2023/12/07 04:25:20;;;;;;;;;;;;;;;-0.64;100.00;101208.06;4998258;28;19940;-78
2023/12/07 04:27:52;;;;;;;;;;;;;;;-0.69;100.00;101205.97;5010324;28;19925;-79
2023/12/07 04:30:27;;;;;;;;;;;;;;;-0.66;100.00;101214.63;4999505;28;19933;-79
2023/12/07 04:33:00;;;;;;;;;;;;;;;-0.65;100.00;101210.94;4997743;28;19937;-79
2023/12/07 04:35:28;;;;;;;;;;;;;;;-0.66;100.00;101204.75;5001706;28;19921;-79
2023/12/07 04:37:56;;;;;;;;;;;;;;;-0.65;100.00;101205.59;4998938;28;19925;-79
2023/12/07 04:40:29;;;;;;;;;;;;;;;-0.62;100.00;101210.53;5005712;28;19932;-79
2023/12/07 04:43:02;;;;;;;;;;;;;;;-0.70;100.00;101204.31;5001811;28;19928;-79
2023/12/07 04:45:31;;;;;;;;;;;;;;;-0.70;100.00;101200.81;4996690;28;20314;-79
2023/12/07 04:48:04;;;;;;;;;;;;;;;-0.67;100.00;101202.28;4998942;28;19929;-79
2023/12/07 04:50:37;;;;;;;;;;;;;;;-0.68;100.00;101198.78;4998606;28;19929;-79
2023/12/07 04:53:10;;;;;;;;;;;;;;;-0.66;100.00;101202.09;5000156;28;19930;-79
2023/12/07 04:55:46;;;;;;;;;;;;;;;-0.70;100.00;101206.16;5004762;28;19921;-79
2023/12/07 04:58:19;;;;;;;;;;;;;;;-0.68;100.00;101209.47;5000689;28;19937;-79
2023/12/07 05:00:53;;;;;;;;;;;;;;;-0.67;100.00;101210.31;5007536;28;20377;-79
2023/12/07 05:03:26;;;;;;;;;;;;;;;-0.66;100.00;101207.44;5005361;28;20314;-78
2023/12/07 05:05:54;;;;;;;;;;;;;;;-0.68;100.00;101212.13;5006581;28;19933;-79
2023/12/07 05:08:22;;;;;;;;;;;;;;;-0.66;100.00;101209.25;5003453;28;19929;-78
2023/12/07 05:10:55;;;;;;;;;;;;;;;-0.65;100.00;101210.94;5003548;28;19932;-79
2023/12/07 05:13:23;;;;;;;;;;;;;;;-0.66;100.00;101212.78;5003261;28;19929;-79
2023/12/07 05:15:57;;;;;;;;;;;;;;;-0.67;100.00;101212.97;5018764;28;19921;-78
2023/12/07 05:18:30;;;;;;;;;;;;;;;-0.66;100.00;101222.63;5008352;28;19941;-79
2023/12/07 05:21:04;;;;;;;;;;;;;;;-0.66;100.00;101218.13;4999606;28;20286;-79
2023/12/07 05:23:32;;;;;;;;;;;;;;;-0.69;100.00;101219.34;5004202;28;19941;-79
2023/12/07 05:26:00;;;;;;;;;;;;;;;-0.65;100.00;101221.63;4998298;28;19926;-79
2023/12/07 05:28:33;;;;;;;;;;;;;;;-0.67;100.00;101229.03;5000723;28;19936;-78
2023/12/07 05:31:03;;;;;;;;;;;;;;;-0.70;100.00;101231.03;5003423;28;19952;-79
2023/12/07 05:33:31;;;;;;;;;;;;;;;-0.70;100.00;101227.56;5003589;28;19932;-79
2023/12/07 05:36:00;;;;;;;;;;;;;;;-0.65;100.00;101221.63;5003179;28;19929;-79
2023/12/07 05:38:28;;;;;;;;;;;;;;;-0.65;100.00;101226.97;4999382;28;19952;-79
2023/12/07 05:40:56;;;;;;;;;;;;;;;-0.60;100.00;101237.91;5001485;28;19926;-79
2023/12/07 05:43:29;;;;;;;;;;;;;;;-0.62;100.00;101231.91;5016893;28;20302;-78
2023/12/07 05:46:03;;;;;;;;;;;;;;;-0.65;100.00;101232.31;5002722;28;19922;-79
2023/12/07 05:48:31;;;;;;;;;;;;;;;-0.67;100.00;101240.53;5020250;28;20366;-79
2023/12/07 05:51:05;;;;;;;;;;;;;;;-0.69;100.00;101243.41;5005331;28;19937;-79
2023/12/07 05:53:33;;;;;;;;;;;;;;;-0.64;100.00;101250.00;4997420;28;19933;-79
2023/12/07 05:56:02;;;;;;;;;;;;;;;-0.62;100.00;101250.63;5001319;28;19933;-79
2023/12/07 05:58:35;;;;;;;;;;;;;;;-0.66;100.00;101252.03;5003076;28;19925;-79
2023/12/07 06:01:05;;;;;;;;;;;;;;;-0.69;100.00;101248.75;5000239;28;19926;-79
2023/12/07 06:03:38;;;;;;;;;;;;;;;-0.63;100.00;101246.34;5002517;28;19932;-79
2023/12/07 06:06:11;;;;;;;;;;;;;;;-0.60;100.00;101249.44;4996664;28;19929;-79
2023/12/07 06:08:39;;;;;;;;;;;;;;;-0.64;100.00;101252.69;5004123;28;19921;-79
2023/12/07 06:11:07;;;;;;;;;;;;;;;-0.65;100.00;101262.53;5000704;28;20362;-79
2023/12/07 06:13:40;;;;;;;;;;;;;;;-0.63;100.00;101246.34;5001557;28;19929;-79
2023/12/07 06:16:16;;;;;;;;;;;;;;;-0.64;100.00;101242.00;5000179;28;19941;-79
2023/12/07 06:18:44;;;;;;;;;;;;;;;-0.66;100.00;101244.00;4998764;28;20317;-79
2023/12/07 06:21:17;;;;;;;;;;;;;;;-0.65;100.00;101249.16;5002459;28;20299;-79
2023/12/07 06:23:46;;;;;;;;;;;;;;;-0.67;100.00;101253.88;4999908;28;19933;-79
2023/12/07 06:26:19;;;;;;;;;;;;;;;-0.65;100.00;101243.81;5004743;28;20721;-79
2023/12/07 06:28:52;;;;;;;;;;;;;;;-0.64;100.00;101248.16;5000619;28;20285;-79
2023/12/07 06:31:27;;;;;;;;;;;;;;;-0.64;100.00;101244.66;4997372;28;19937;-79
2023/12/07 06:34:00;;;;;;;;;;;;;;;-0.63;100.00;101251.69;5004698;28;20286;-79
2023/12/07 06:36:33;;;;;;;;;;;;;;;-0.64;100.00;101248.16;5002485;28;19921;-79
2023/12/07 06:39:01;;;;;;;;;;;;;;;-0.66;100.00;101252.88;4997961;28;19937;-79
2023/12/07 06:41:29;;;;;;;;;;;;;;;-0.67;100.00;101245.06;4997135;28;19929;-79
2023/12/07 06:43:57;;;;;;;;;;;;;;;-0.66;100.00;101244.88;4998191;28;19925;-79
2023/12/07 06:46:26;;;;;;;;;;;;;;;-0.63;100.00;101251.69;5001030;28;19929;-78
2023/12/07 06:49:00;;;;;;;;;;;;;;;-0.63;100.00;101254.34;4996361;28;19936;-79
2023/12/07 06:51:27;;;;;;;;;;;;;;;-0.62;100.00;101259.50;4999405;28;19922;-79
2023/12/07 06:53:55;;;;;;;;;;;;;;;-0.65;100.00;101254.50;4998829;28;19926;-79
2023/12/07 06:56:28;;;;;;;;;;;;;;;-0.62;100.00;101259.50;5000729;28;19941;-79
2023/12/07 06:59:01;;;;;;;;;;;;;;;-0.62;100.00;101266.69;5007179;28;19933;-79
2023/12/07 07:01:35;;;;;;;;;;;;;;;-0.64;100.00;101268.72;4998914;28;19925;-79
2023/12/07 07:04:08;;;;;;;;;;;;;;;-0.65;100.00;101265.22;5004348;28;19925;-79
2023/12/07 07:06:36;;;;;;;;;;;;;;;-0.62;100.00;101269.34;5005616;28;20362;-79
2023/12/07 07:09:05;;;;;;;;;;;;;;;-0.62;100.00;101272.88;5002008;28;20409;-79
2023/12/07 07:11:38;;;;;;;;;;;;;;;-0.68;100.00;101281.63;4998751;28;19925;-79
2023/12/07 07:14:06;;;;;;;;;;;;;;;-0.62;100.00;101283.56;5003676;28;19932;-79
2023/12/07 07:16:40;;;;;;;;;;;;;;;-0.60;100.00;101281.50;5006610;28;19925;-79
2023/12/07 07:19:14;;;;;;;;;;;;;;;-0.59;100.00;101283.16;5006109;28;19925;-79
2023/12/07 07:21:44;;;;;;;;;;;;;;;-0.58;100.00;101276.81;5013946;28;19937;-79
2023/12/07 07:24:17;;;;;;;;;;;;;;;-0.57;100.00;101281.13;4998059;28;19929;-79
2023/12/07 07:26:45;;;;;;;;;;;;;;;-0.59;100.00;101285.03;4998704;28;19925;-79
2023/12/07 07:29:19;;;;;;;;;;;;;;;-0.59;100.00;101291.19;4997900;28;20361;-79
2023/12/07 07:31:54;;;;;;;;;;;;;;;-0.56;100.00;101293.47;4999094;28;19925;-79
2023/12/07 07:34:27;;;;;;;;;;;;;;;-0.57;100.00;101293.66;4999673;28;19929;-78
2023/12/07 07:36:59;;;;;;;;;;;;;;;-0.55;100.00;101294.31;4997150;28;19925;-79
2023/12/07 07:39:27;;;;;;;;;;;;;;;-0.56;100.00;101288.13;4999883;28;19922;-78
2023/12/07 07:42:00;;;;;;;;;;;;;;;-0.57;100.00;101291.00;4997360;28;19925;-79
2023/12/07 07:44:33;;;;;;;;;;;;;;;-0.59;100.00;101285.84;4996354;28;19925;-79
2023/12/07 07:47:03;;;;;;;;;;;;;;;-0.53;100.00;101287.75;4999120;28;20504;-79
2023/12/07 07:49:36;;;;;;;;;;;;;;;-0.54;100.00;101280.75;4997571;28;19926;-79
2023/12/07 07:52:08;;;;;;;;;;;;;;;-0.55;100.00;101278.28;5002261;28;19921;-79
2023/12/07 07:54:43;;;;;;;;;;;;;;;-0.51;100.00;101276.88;4999426;28;20739;-79
2023/12/07 07:57:16;;;;;;;;;;;;;;;-0.53;100.00;101274.38;4999985;28;19937;-79
2023/12/07 07:59:49;;;;;;;;;;;;;;;-0.53;100.00;101281.56;4999815;28;19932;-79
2023/12/07 08:02:18;;;;;;;;;;;;;;;-0.49;100.00;101276.69;4993787;28;20389;-79
2023/12/07 08:04:46;;;;;;;;;;;;;;;-0.50;100.00;101286.53;4994196;28;19925;-79
2023/12/07 08:07:19;;;;;;;;;;;;;;;-0.50;100.00;101293.75;4998625;28;20486;-78
2023/12/07 08:09:47;;;;;;;;;;;;;;;-0.58;100.00;101292.84;4998708;28;19921;-79
2023/12/07 08:12:22;;;;;;;;;;;;;;;-0.50;100.00;101297.22;4999058;28;19932;-79
2023/12/07 08:14:50;;;;;;;;;;;;;;;-0.48;100.00;101291.69;4991737;28;19933;-78
2023/12/07 08:17:21;;;;;;;;;;;;;;;-0.49;100.00;101293.53;4995605;28;19925;-78
2023/12/07 08:19:54;;;;;;;;;;;;;;;-0.46;100.00;101313.72;4995297;28;21225;-78
2023/12/07 08:22:22;;;;;;;;;;;;;;;-0.47;100.00;101309.41;4996584;28;19925;-78
2023/12/07 08:24:50;;;;;;;;;;;;;;;-0.42;100.00;101318.50;4991219;28;19951;-78
2023/12/07 08:27:18;;;;;;;;;;;;;;;-0.46;100.00;101322.56;4999313;28;19926;-78
2023/12/07 08:29:46;;;;;;;;;;;;;;;-0.40;100.00;101331.66;5005461;28;19933;-79
2023/12/07 08:32:20;;;;;;;;;;;;;;;-0.43;100.00;101324.03;4993711;28;19925;-78
2023/12/07 08:34:53;;;;;;;;;;;;;;;-0.41;100.00;101328.19;5000112;28;20193;-78
2023/12/07 08:37:27;;;;;;;;;;;;;;;-0.43;100.00;101338.25;4996644;28;21728;-78
2023/12/07 08:39:55;;;;;;;;;;;;;;;-0.42;100.00;101337.22;4998943;28;19940;-79
2023/12/07 08:42:28;;;;;;;;;;;;;;;-0.42;100.00;101345.25;4997958;28;20298;-79
2023/12/07 08:45:08;;;;;;;;;;;;;;;-0.38;100.00;101343.03;4982414;28;19925;-80
2023/12/07 08:47:40;;;;;;;;;;;;;;;-0.40;100.00;101339.69;5001857;28;19930;-81
2023/12/07 08:50:09;;;;;;;;;;;;;;;-0.38;100.00;101343.03;4988668;28;19930;-81
2023/12/07 08:52:42;;;;;;;;;;;;;;;-0.38;100.00;101348.38;4985611;28;19929;-81
2023/12/07 08:55:16;;;;;;;;;;;;;;;-0.31;100.00;101343.09;4983454;28;20561;-80
2023/12/07 08:57:44;;;;;;;;;;;;;;;-0.33;100.00;101350.47;4983632;28;19929;-80
2023/12/07 09:00:13;;;;;;;;;;;;;;;-0.33;100.00;101345.13;4986551;28;20314;-80
2023/12/07 09:02:47;;;;;;;;;;;;;;;-0.36;100.00;101346.31;4987834;28;19929;-80
2023/12/07 09:05:20;;;;;;;;;;;;;;;-0.27;100.00;101341.69;4990615;28;19936;-80
2023/12/07 09:07:48;;;;;;;;;;;;;;;-0.24;100.00;101346.66;4984401;28;20017;-80
2023/12/07 09:10:21;;;;;;;;;;;;;;;-0.23;100.00;101341.09;4986687;28;19936;-80
2023/12/07 09:12:49;;;;;;;;;;;;;;;-0.23;100.00;101353.66;4988868;28;20416;-80
2023/12/07 09:15:23;;;;;;;;;;;;;;;-0.15;100.00;101353.53;4984613;28;19929;-85
2023/12/07 09:17:57;;;;;;;;;;;;;;;-0.13;100.00;101361.38;4991083;28;19932;-81
2023/12/07 09:20:25;;;;;;;;;;;;;;;-0.18;100.00;101360.09;4988102;28;19940;-80
2023/12/07 09:22:58;;;;;;;;;;;;;;;-0.10;100.00;101363.66;4986427;28;19926;-80
2023/12/07 09:25:31;;;;;;;;;;;;;;;-0.10;100.00;101369.00;4992034;28;19929;-80
2023/12/07 09:27:59;;;;;;;;;;;;;;;-0.04;100.00;101358.34;4996820;28;20390;-79
2023/12/07 09:30:27;;;;;;;;;;;;;;;0.02;100.00;101363.97;4974260;28;20960;-79
2023/12/07 09:33:02;;;;;;;;;;;;;;;-0.06;100.00;101362.25;4982314;28;19976;-80
2023/12/07 09:35:31;;;;;;;;;;;;;;;-0.06;100.00;101354.22;4967146;28;19936;-79
2023/12/07 09:38:04;;;;;;;;;;;;;;;0.04;100.00;101353.88;4970106;28;19929;-79
2023/12/07 09:40:32;;;;;;;;;;;;;;;0.06;100.00;101359.88;4975952;28;19937;-80
2023/12/07 09:43:01;;;;;;;;;;;;;;;0.11;100.00;101355.59;4972852;28;20506;-79
2023/12/07 09:45:34;;;;;;;;;;;;;;;0.10;100.00;101353.94;4944403;28;22106;-79
2023/12/07 09:48:04;;;;;;;;;;;;;;;0.16;100.00;101347.00;4965344;28;19936;-80
2023/12/07 09:50:32;;;;;;;;;;;;;;;0.26;100.00;101357.34;4971240;28;20793;-80
2023/12/07 09:53:05;;;;;;;;;;;;;;;0.30;100.00;101359.47;4980518;28;19936;-79
2023/12/07 09:55:33;;;;;;;;;;;;;;;0.35;100.00;101364.22;4973155;28;19936;-79
2023/12/07 09:58:06;;;;;;;;;;;;;;;0.33;100.00;101364.41;4965725;28;19930;-79
2023/12/07 10:00:35;;;;;;;;;;;;;;;0.16;100.00;101353.16;4967636;28;19930;-79
2023/12/07 10:03:20;;;;;;;;;;;;;;;0.19;100.00;101357.28;4969368;28;19930;-79
2023/12/07 10:05:55;;;;;;;;;;;;;;;0.26;100.00;101360.88;4968378;28;19936;-79
2023/12/07 10:08:29;;;;;;;;;;;;;;;0.15;100.00;101361.38;4985111;28;19929;-79
2023/12/07 10:11:04;;;;;;;;;;;;;;;0.21;100.00;101362.44;4972165;28;19929;-79
2023/12/07 10:13:37;;;;;;;;;;;;;;;0.24;100.00;101354.88;4964788;28;19925;-79
2023/12/07 10:16:11;;;;;;;;;;;;;;;0.27;100.00;101350.97;4968243;28;19926;-79
2023/12/07 10:18:41;;;;;;;;;;;;;;;0.27;100.00;101361.69;4976867;28;19929;-79
2023/12/07 10:21:14;;;;;;;;;;;;;;;0.38;100.00;101360.34;4978468;28;19929;-80
2023/12/07 10:23:43;;;;;;;;;;;;;;;0.40;100.00;101355.59;4967962;28;20570;-79
2023/12/07 10:26:19;;;;;;;;;;;;;;;0.41;100.00;101365.28;4982848;28;19929;-80
2023/12/07 10:28:54;;;;;;;;;;;;;;;0.52;100.00;101358.56;4972434;28;19937;-79
2023/12/07 10:31:26;;;;;;;;;;;;;;;0.65;100.00;101351.44;4982001;28;19944;-79
2023/12/07 10:34:01;;;;;;;;;;;;;;;0.65;100.00;101358.66;4963146;28;19929;-79
2023/12/07 10:36:34;;;;;;;;;;;;;;;0.60;100.00;101355.75;4966441;28;19936;-80
2023/12/07 10:39:07;;;;;;;;;;;;;;;0.62;100.00;101362.56;4965787;28;19936;-80
2023/12/07 10:41:39;;;;;;;;;;;;;;;0.62;100.00;101361.72;4978815;28;19932;-79
2023/12/07 10:44:14;;;;;;;;;;;;;;;0.54;100.00;101360.03;4971658;28;19937;-79
2023/12/07 10:46:48;;;;;;;;;;;;;;;0.59;100.00;101357.56;4954047;28;19940;-80
2023/12/07 10:49:20;;;;;;;;;;;;;;;0.59;100.00;101365.59;4964643;28;20777;-79
2023/12/07 10:51:52;;;;;;;;;;;;;;;0.55;100.00;101361.66;4970128;28;19929;-79
2023/12/07 10:54:23;;;;;;;;;;;;;;;0.56;100.00;101360.66;4984249;28;19930;-78
2023/12/07 10:56:56;;;;;;;;;;;;;;;0.63;100.00;101355.34;4989572;28;19940;-79
2023/12/07 10:59:30;;;;;;;;;;;;;;;0.60;100.00;101355.75;4987200;28;19930;-79
2023/12/07 11:02:06;;;;;;;;;;;;;;;0.59;100.00;101357.56;4985874;28;20009;-79
2023/12/07 11:04:36;;;;;;;;;;;;;;;0.56;100.00;101363.31;4982289;28;20381;-79
2023/12/07 11:07:07;;;;;;;;;;;;;;;0.59;100.00;101356.75;4989505;28;19929;-79
2023/12/07 11:09:45;;;;;;;;;;;;;;;0.59;100.00;101362.94;4991271;28;20047;-79
2023/12/07 11:12:24;;;;;;;;;;;;;;;0.52;100.00;101367.41;4984383;28;19929;-79
2023/12/07 11:14:57;;;;;;;;;;;;;;;0.57;100.00;101365.00;4984706;28;20601;-79
2023/12/07 11:17:25;;;;;;;;;;;;;;;0.54;100.00;101361.88;4987284;28;19941;-79
2023/12/07 11:19:55;;;;;;;;;;;;;;;0.40;100.00;101366.31;4986980;28;19929;-79
2023/12/07 11:22:28;;;;;;;;;;;;;;;0.43;100.00;101365.91;4968787;28;19929;-79
2023/12/07 11:25:02;;;;;;;;;;;;;;;0.32;100.00;101360.09;4965474;28;19929;-79
2023/12/07 11:27:35;;;;;;;;;;;;;;;0.32;100.00;101354.72;4970177;28;20358;-79
2023/12/07 11:30:08;;;;;;;;;;;;;;;0.46;100.00;101354.81;4972179;28;19936;-79
2023/12/07 11:32:42;;;;;;;;;;;;;;;0.47;100.00;101353.78;4965795;28;19937;-79
2023/12/07 11:35:16;;;;;;;;;;;;;;;0.49;100.00;101344.53;4979302;28;19944;-80
2023/12/07 11:38:06;;;;;;;;;;;;;;;0.53;100.00;101347.66;4965676;28;19936;-80
2023/12/07 11:40:41;;;;;;;;;;;;;;;0.47;100.00;101356.47;4975537;28;19928;-79
2023/12/07 11:43:17;;;;;;;;;;;;;;;0.47;100.00;101348.44;4977016;28;19929;-79
2023/12/07 11:45:51;;;;;;;;;;;;;;;0.53;100.00;101350.34;4987229;28;19928;-79
2023/12/07 11:48:20;;;;;;;;;;;;;;;0.55;100.00;101345.59;4985093;28;19929;-79
2023/12/07 11:50:56;;;;;;;;;;;;;;;0.64;100.00;101348.97;4988833;28;19936;-79
2023/12/07 11:53:30;;;;;;;;;;;;;;;0.62;100.00;101345.63;4981243;28;19930;-80
2023/12/07 11:55:58;;;;;;;;;;;;;;;0.46;100.00;101349.47;4992700;28;19930;-80
2023/12/07 11:58:32;;;;;;;;;;;;;;;0.57;100.00;101348.09;4979921;28;19936;-79
2023/12/07 12:01:05;;;;;;;;;;;;;;;0.56;100.00;101344.56;4981405;28;19929;-80
2023/12/07 12:03:38;;;;;;;;;;;;;;;0.56;100.00;101338.41;4976876;28;19940;-79
2023/12/07 12:06:12;;;;;;;;;;;;;;;0.56;100.00;101343.75;4980366;28;19925;-79
2023/12/07 12:08:41;;;;;;;;;;;;;;;0.61;100.00;101336.78;4981199;28;20544;-79
2023/12/07 12:11:14;;;;;;;;;;;;;;;0.65;100.00;101340.72;4982739;28;19936;-80
2023/12/07 12:13:42;;;;;;;;;;;;;;;0.70;100.00;101340.13;4988319;28;19958;-79
2023/12/07 12:16:12;;;;;;;;;;;;;;;0.70;100.00;101342.00;4978688;28;20593;-80
2023/12/07 12:18:40;;;;;;;;;;;;;;;0.65;100.00;101350.63;4977520;28;19922;-80
2023/12/07 12:21:14;;;;;;;;;;;;;;;0.65;100.00;101342.59;4986354;28;19936;-80
2023/12/07 12:23:48;;;;;;;;;;;;;;;0.67;100.00;101340.53;4987070;28;19930;-79
2023/12/07 12:26:17;;;;;;;;;;;;;;;0.58;100.00;101339.03;4980834;28;19929;-80
2023/12/07 12:28:52;;;;;;;;;;;;;;;0.51;100.00;101336.31;4977244;28;19929;-81
2023/12/07 12:31:25;;;;;;;;;;;;;;;0.56;100.00;101338.41;4987276;28;19937;-80
2023/12/07 12:34:00;;;;;;;;;;;;;;;0.60;100.00;101324.41;4985446;28;19929;-84
2023/12/07 12:36:34;;;;;;;;;;;;;;;0.65;100.00;101326.53;4988828;28;20374;-80
2023/12/07 12:39:08;;;;;;;;;;;;;;;0.56;100.00;101328.50;4980996;28;19929;-80
2023/12/07 12:41:41;;;;;;;;;;;;;;;0.60;100.00;101320.91;4985121;28;19937;-79
2023/12/07 12:44:14;;;;;;;;;;;;;;;0.64;100.00;101317.63;4981725;28;19930;-80
2023/12/07 12:46:47;;;;;;;;;;;;;;;0.64;100.00;101324.84;4951513;28;19929;-80
2023/12/07 12:49:14;;;;;;;;;;;;;;;0.56;100.00;101320.47;4976825;28;20685;-80
2023/12/07 12:51:50;;;;;;;;;;;;;;;0.61;100.00;101326.06;4978440;28;19938;-79
2023/12/07 12:54:21;;;;;;;;;;;;;;;0.64;100.00;101328.34;4985190;28;19929;-80